createdAt,value
2017-05-18T00:00:44.877Z,17.46
2017-05-18T00:01:30.286Z,17.44
2017-05-18T00:02:30.312Z,17.4
2017-05-18T00:03:29.728Z,17.38
2017-05-18T00:04:30.364Z,17.38
2017-05-18T00:05:30.387Z,17.43
2017-05-18T00:06:30.412Z,17.41
2017-05-18T00:07:29.831Z,17.34
2017-05-18T00:08:30.158Z,17.41
2017-05-18T00:09:30.492Z,17.26
2017-05-18T00:10:30.510Z,17.22
2017-05-18T00:12:30.561Z,17.3
2017-05-18T00:13:30.589Z,17.22
2017-05-18T00:14:30.614Z,17.3
2017-05-18T00:15:30.638Z,17.18
2017-05-18T00:16:45.279Z,17.22
2017-05-18T00:17:30.383Z,17.25
2017-05-18T00:18:30.714Z,17.22
2017-05-18T00:19:30.437Z,17.16
2017-05-18T00:20:30.764Z,17.21
2017-05-18T00:21:30.787Z,17.12
2017-05-18T00:22:30.813Z,17.15
2017-05-18T00:24:30.866Z,17.15
2017-05-18T00:25:30.886Z,17.04
2017-05-18T00:26:30.611Z,17.14
2017-05-18T00:27:30.939Z,17.01
2017-05-18T00:28:30.964Z,17.04
2017-05-18T00:29:30.993Z,17.08
2017-05-18T00:30:31.017Z,17.11
2017-05-18T00:31:31.040Z,17.06
2017-05-18T00:32:45.682Z,16.96
2017-05-18T00:33:31.092Z,16.93
2017-05-18T00:34:31.114Z,17
2017-05-18T00:35:30.836Z,17
2017-05-18T00:36:31.164Z,16.91
2017-05-18T00:37:30.887Z,17
2017-05-18T00:38:30.919Z,16.97
2017-05-18T00:39:31.237Z,16.93
2017-05-18T00:41:30.987Z,16.83
2017-05-18T00:42:31.314Z,16.81
2017-05-18T00:43:31.342Z,16.85
2017-05-18T00:44:31.365Z,16.76
2017-05-18T00:45:46.006Z,16.75
2017-05-18T00:46:31.415Z,16.79
2017-05-18T00:47:31.444Z,16.64
2017-05-18T00:48:46.088Z,16.66
2017-05-18T00:49:31.487Z,16.64
2017-05-18T00:50:31.515Z,16.7
2017-05-18T00:51:31.538Z,16.68
2017-05-18T00:52:31.563Z,16.66
2017-05-18T00:53:31.587Z,16.64
2017-05-18T00:54:31.612Z,16.63
2017-05-18T00:55:31.637Z,16.7
2017-05-18T00:56:31.666Z,16.67
2017-05-18T00:57:31.689Z,16.67
2017-05-18T00:58:31.715Z,16.61
2017-05-18T00:59:31.737Z,16.56
2017-05-18T01:00:46.380Z,16.57
2017-05-18T01:01:31.787Z,16.52
2017-05-18T01:02:31.815Z,16.49
2017-05-18T01:03:46.455Z,16.56
2017-05-18T01:04:31.865Z,16.57
2017-05-18T01:05:31.885Z,16.52
2017-05-18T01:06:31.916Z,16.48
2017-05-18T01:07:31.947Z,16.49
2017-05-18T01:08:31.963Z,16.5
2017-05-18T01:10:32.016Z,16.42
2017-05-18T01:12:32.062Z,16.34
2017-05-18T01:13:32.095Z,16.28
2017-05-18T01:14:31.810Z,16.42
2017-05-18T01:15:32.138Z,16.35
2017-05-18T01:16:32.162Z,16.31
2017-05-18T01:17:32.187Z,16.31
2017-05-18T01:18:32.213Z,16.35
2017-05-18T01:19:32.249Z,16.27
2017-05-18T01:20:32.260Z,16.27
2017-05-18T01:21:32.283Z,16.31
2017-05-18T01:22:32.313Z,16.24
2017-05-18T01:23:32.336Z,16.25
2017-05-18T01:24:32.358Z,16.24
2017-05-18T01:26:32.408Z,16.21
2017-05-18T01:27:32.432Z,16.15
2017-05-18T01:28:32.462Z,16.09
2017-05-18T01:29:32.490Z,16.11
2017-05-18T01:30:32.508Z,16.11
2017-05-18T01:31:32.534Z,16.12
2017-05-18T01:32:32.558Z,16.14
2017-05-18T01:33:32.583Z,16.12
2017-05-18T01:34:32.310Z,16.11
2017-05-18T01:35:47.305Z,16.05
2017-05-18T01:36:32.662Z,16.08
2017-05-18T01:37:32.683Z,16.02
2017-05-18T01:38:32.703Z,15.97
2017-05-18T01:39:32.734Z,15.96
2017-05-18T01:40:32.752Z,16
2017-05-18T01:41:32.780Z,15.9
2017-05-18T01:42:32.807Z,15.92
2017-05-18T01:43:32.831Z,15.82
2017-05-18T01:44:32.860Z,15.9
2017-05-18T01:46:32.599Z,15.92
2017-05-18T01:47:32.625Z,15.83
2017-05-18T01:48:32.952Z,15.9
2017-05-18T01:49:33.274Z,15.83
2017-05-18T01:50:33.004Z,15.78
2017-05-18T01:51:47.646Z,15.72
2017-05-18T01:52:32.746Z,15.67
2017-05-18T01:53:33.077Z,15.75
2017-05-18T01:54:33.099Z,15.71
2017-05-18T01:55:33.124Z,15.69
2017-05-18T01:56:33.148Z,15.72
2017-05-18T01:57:33.173Z,15.6
2017-05-18T01:58:33.196Z,15.6
2017-05-18T02:00:33.244Z,15.46
2017-05-18T02:01:32.971Z,15.41
2017-05-18T02:02:33.298Z,15.56
2017-05-18T02:03:47.938Z,15.54
2017-05-18T02:04:33.043Z,15.47
2017-05-18T02:05:33.065Z,15.46
2017-05-18T02:06:33.094Z,15.44
2017-05-18T02:07:48.035Z,15.53
2017-05-18T02:08:33.139Z,15.51
2017-05-18T02:09:33.475Z,15.39
2017-05-18T02:10:33.187Z,15.43
2017-05-18T02:11:33.515Z,15.29
2017-05-18T02:12:33.236Z,15.38
2017-05-18T02:13:33.568Z,15.29
2017-05-18T02:14:33.587Z,15.36
2017-05-18T02:16:48.258Z,15.25
2017-05-18T02:17:33.668Z,15.2
2017-05-18T02:18:33.692Z,15.03
2017-05-18T02:19:33.718Z,15.2
2017-05-18T02:20:33.739Z,15.11
2017-05-18T02:21:33.465Z,15.2
2017-05-18T02:22:33.483Z,15.11
2017-05-18T02:23:48.426Z,15.03
2017-05-18T02:24:33.834Z,15.14
2017-05-18T02:25:33.858Z,15.17
2017-05-18T02:26:33.882Z,15.17
2017-05-18T02:27:33.908Z,15.19
2017-05-18T02:28:33.932Z,15.25
2017-05-18T02:29:33.964Z,15.17
2017-05-18T02:30:33.980Z,15.16
2017-05-18T02:31:34.006Z,15.14
2017-05-18T02:32:34.030Z,15.09
2017-05-18T02:35:48.719Z,15.07
2017-05-18T02:36:34.129Z,14.99
2017-05-18T02:37:34.153Z,15.06
2017-05-18T02:38:48.793Z,14.95
2017-05-18T02:39:34.200Z,14.95
2017-05-18T02:40:34.225Z,14.94
2017-05-18T02:41:34.250Z,14.95
2017-05-18T02:42:34.275Z,14.96
2017-05-18T02:43:34.298Z,14.91
2017-05-18T02:44:34.325Z,14.95
2017-05-18T02:45:34.346Z,14.92
2017-05-18T02:46:34.371Z,14.75
2017-05-18T02:47:34.393Z,14.8
2017-05-18T02:48:34.428Z,14.78
2017-05-18T02:49:34.442Z,14.78
2017-05-18T02:50:49.084Z,14.72
2017-05-18T02:51:49.155Z,14.73
2017-05-18T02:52:34.514Z,14.83
2017-05-18T02:53:34.539Z,14.8
2017-05-18T02:54:34.566Z,14.78
2017-05-18T02:55:34.589Z,14.81
2017-05-18T02:56:34.612Z,14.77
2017-05-18T02:57:34.637Z,14.75
2017-05-18T02:58:34.660Z,14.77
2017-05-18T02:59:34.387Z,14.72
2017-05-18T03:00:34.710Z,14.7
2017-05-18T03:01:34.736Z,14.69
2017-05-18T03:04:34.806Z,14.65
2017-05-18T03:05:34.835Z,14.69
2017-05-18T03:06:34.856Z,14.6
2017-05-18T03:07:34.880Z,14.64
2017-05-18T03:08:34.903Z,14.68
2017-05-18T03:09:34.927Z,14.62
2017-05-18T03:10:49.573Z,14.69
2017-05-18T03:11:34.979Z,14.68
2017-05-18T03:12:35.000Z,14.62
2017-05-18T03:13:35.025Z,14.65
2017-05-18T03:14:35.049Z,14.73
2017-05-18T03:15:35.070Z,14.61
2017-05-18T03:16:35.095Z,14.65
2017-05-18T03:17:35.124Z,14.52
2017-05-18T03:18:35.145Z,14.58
2017-05-18T03:19:35.172Z,14.64
2017-05-18T03:20:35.189Z,14.61
2017-05-18T03:22:35.241Z,14.6
2017-05-18T03:23:49.880Z,14.64
2017-05-18T03:24:35.291Z,14.57
2017-05-18T03:25:35.310Z,14.64
2017-05-18T03:26:49.955Z,14.61
2017-05-18T03:27:35.364Z,14.6
2017-05-18T03:28:35.081Z,14.61
2017-05-18T03:29:35.107Z,14.68
2017-05-18T03:30:35.432Z,14.61
2017-05-18T03:31:35.455Z,14.57
2017-05-18T03:32:35.479Z,14.65
2017-05-18T03:33:35.503Z,14.68
2017-05-18T03:34:35.532Z,14.58
2017-05-18T03:35:35.550Z,14.51
2017-05-18T03:36:35.575Z,14.65
2017-05-18T03:37:35.602Z,14.62
2017-05-18T03:38:50.242Z,14.51
2017-05-18T03:39:35.648Z,14.62
2017-05-18T03:40:35.677Z,14.68
2017-05-18T03:41:35.699Z,14.69
2017-05-18T03:42:50.336Z,14.62
2017-05-18T03:43:35.742Z,14.69
2017-05-18T03:44:35.768Z,14.62
2017-05-18T03:45:35.790Z,14.61
2017-05-18T03:46:35.816Z,14.75
2017-05-18T03:47:35.846Z,14.8
2017-05-18T03:48:35.863Z,14.8
2017-05-18T03:49:35.888Z,14.75
2017-05-18T03:50:35.921Z,14.88
2017-05-18T03:51:35.936Z,14.86
2017-05-18T03:53:35.983Z,14.92
2017-05-18T03:54:50.626Z,14.94
2017-05-18T03:55:36.032Z,14.99
2017-05-18T03:56:36.060Z,15.06
2017-05-18T03:57:36.082Z,15.11
2017-05-18T03:58:50.726Z,15.16
2017-05-18T03:59:36.130Z,15.1
2017-05-18T04:00:36.153Z,15.16
2017-05-18T04:01:36.181Z,15.2
2017-05-18T04:02:36.202Z,15.21
2017-05-18T04:03:36.234Z,15.23
2017-05-18T04:04:36.256Z,15.28
2017-05-18T04:05:36.273Z,15.34
2017-05-18T04:06:36.299Z,15.32
2017-05-18T04:09:36.370Z,15.21
2017-05-18T04:10:51.013Z,15.38
2017-05-18T04:11:36.424Z,15.44
2017-05-18T04:12:36.449Z,15.54
2017-05-18T04:13:51.086Z,15.54
2017-05-18T04:14:36.497Z,15.59
2017-05-18T04:15:36.521Z,15.72
2017-05-18T04:16:36.542Z,15.65
2017-05-18T04:17:36.565Z,15.74
2017-05-18T04:18:36.594Z,15.78
2017-05-18T04:19:36.618Z,15.76
2017-05-18T04:20:36.637Z,15.83
2017-05-18T04:21:36.663Z,15.78
2017-05-18T04:22:36.692Z,15.78
2017-05-18T04:23:36.720Z,15.74
2017-05-18T04:24:36.741Z,15.78
2017-05-18T04:25:36.760Z,15.71
2017-05-18T04:26:36.785Z,15.8
2017-05-18T04:27:36.817Z,15.8
2017-05-18T04:28:36.845Z,15.83
2017-05-18T04:29:36.862Z,15.83
2017-05-18T04:30:36.882Z,15.87
2017-05-18T04:31:36.911Z,15.86
2017-05-18T04:32:36.932Z,15.94
2017-05-18T04:33:36.957Z,16.02
2017-05-18T04:34:36.982Z,15.96
2017-05-18T04:35:37.009Z,15.97
2017-05-18T04:36:37.028Z,16.09
2017-05-18T04:37:37.058Z,16.14
2017-05-18T04:38:37.081Z,16.15
2017-05-18T04:39:37.101Z,16.24
2017-05-18T04:40:51.745Z,16.3
2017-05-18T04:41:37.150Z,16.57
2017-05-18T04:42:37.184Z,17.26
2017-05-18T04:43:37.201Z,17.96
2017-05-18T04:44:37.230Z,18.91
2017-05-18T04:45:51.867Z,19.77
2017-05-18T04:46:37.278Z,20.39
2017-05-18T04:47:37.322Z,20.87
2017-05-18T04:48:37.327Z,21.67
2017-05-18T04:49:37.349Z,22.17
2017-05-18T04:50:37.383Z,22.54
2017-05-18T04:51:37.407Z,23
2017-05-18T04:52:37.435Z,23.57
2017-05-18T04:53:37.465Z,23.93
2017-05-18T04:54:37.497Z,24.13
2017-05-18T04:57:37.573Z,25.54
2017-05-18T04:58:37.603Z,25.72
2017-05-18T04:59:37.631Z,25.91
2017-05-18T05:00:37.661Z,25.9
2017-05-18T05:01:52.310Z,25.85
2017-05-18T05:02:37.728Z,26.15
2017-05-18T05:03:37.757Z,26.5
2017-05-18T05:04:37.787Z,26.6
2017-05-18T05:05:37.817Z,26.75
2017-05-18T05:06:37.845Z,27.09
2017-05-18T05:07:37.877Z,27.51
2017-05-18T05:08:37.910Z,27.69
2017-05-18T05:09:37.943Z,27.5
2017-05-18T05:10:37.973Z,27.7
2017-05-18T05:11:38.007Z,27.92
2017-05-18T05:12:38.041Z,28.39
2017-05-18T05:13:38.076Z,28.81
2017-05-18T05:14:52.724Z,29.36
2017-05-18T05:15:38.139Z,29.39
2017-05-18T05:16:38.225Z,29.48
2017-05-18T05:17:52.825Z,30.16
2017-05-18T05:18:38.240Z,29.85
2017-05-18T05:19:38.275Z,30.45
2017-05-18T05:20:38.311Z,30.34
2017-05-18T05:21:38.342Z,30.35
2017-05-18T05:22:38.432Z,30.16
2017-05-18T05:23:38.413Z,30.47
2017-05-18T05:24:38.454Z,30.64
2017-05-18T05:25:38.481Z,30.43
2017-05-18T05:26:38.522Z,30.6
2017-05-18T05:27:38.557Z,30.65
2017-05-18T05:28:38.589Z,30.47
2017-05-18T05:29:38.623Z,30.79
2017-05-18T05:30:38.661Z,30.91
2017-05-18T05:31:38.696Z,30.92
2017-05-18T05:32:38.729Z,31.54
2017-05-18T05:33:53.386Z,31.81
2017-05-18T05:35:38.535Z,31.88
2017-05-18T05:36:38.881Z,32.18
2017-05-18T05:37:38.912Z,32.56
2017-05-18T05:38:38.645Z,32.82
2017-05-18T05:39:38.981Z,32.67
2017-05-18T05:40:39.018Z,32.82
2017-05-18T05:41:39.058Z,32.92
2017-05-18T05:42:38.799Z,33.26
2017-05-18T05:43:39.130Z,33.19
2017-05-18T05:44:53.814Z,33.21
2017-05-18T05:45:39.203Z,33.16
2017-05-18T05:46:39.241Z,32.97
2017-05-18T05:47:39.281Z,32.96
2017-05-18T05:48:53.935Z,33.32
2017-05-18T05:49:39.049Z,33.38
2017-05-18T05:50:39.390Z,33.01
2017-05-18T05:51:39.428Z,32.35
2017-05-18T05:52:39.467Z,32.69
2017-05-18T05:53:39.502Z,32.23
2017-05-18T05:55:39.578Z,31.88
2017-05-18T05:56:39.615Z,32.13
2017-05-18T05:57:39.658Z,32.59
2017-05-18T05:58:39.690Z,32.81
2017-05-18T05:59:39.732Z,33.04
2017-05-18T06:00:39.765Z,33.09
2017-05-18T06:01:54.425Z,32.88
2017-05-18T06:02:39.846Z,32.81
2017-05-18T06:03:39.880Z,32.96
2017-05-18T06:04:39.923Z,33.34
2017-05-18T06:05:39.955Z,33.45
2017-05-18T06:06:39.992Z,33.04
2017-05-18T06:07:40.032Z,33
2017-05-18T06:08:40.087Z,33.21
2017-05-18T06:09:40.108Z,33.47
2017-05-18T06:10:40.146Z,33.68
2017-05-18T06:11:39.881Z,33.65
2017-05-18T06:12:40.228Z,33.63
2017-05-18T06:13:40.561Z,33.53
2017-05-18T06:14:40.297Z,33.53
2017-05-18T06:15:40.334Z,33.45
2017-05-18T06:16:40.373Z,33.54
2017-05-18T06:17:40.415Z,33.6
2017-05-18T06:18:40.450Z,33.59
2017-05-18T06:19:40.486Z,34.09
2017-05-18T06:20:55.151Z,34.69
2017-05-18T06:21:40.566Z,34.77
2017-05-18T06:22:40.607Z,34.47
2017-05-18T06:23:40.644Z,34.08
2017-05-18T06:24:40.680Z,33.73
2017-05-18T06:25:40.720Z,33.73
2017-05-18T06:26:40.759Z,33.57
2017-05-18T06:28:40.841Z,33.47
2017-05-18T06:29:55.499Z,32.84
2017-05-18T06:30:40.919Z,32.94
2017-05-18T06:31:40.958Z,32.5
2017-05-18T06:32:40.999Z,32.26
2017-05-18T06:33:41.032Z,32.57
2017-05-18T06:34:41.069Z,32.57
2017-05-18T06:35:41.108Z,33.32
2017-05-18T06:36:55.767Z,32.77
2017-05-18T06:37:41.190Z,32.82
2017-05-18T06:38:40.617Z,32.88
2017-05-18T06:39:40.959Z,33.16
2017-05-18T06:40:40.997Z,33.06
2017-05-18T06:41:41.348Z,33.31
2017-05-18T06:42:41.083Z,33.54
2017-05-18T06:43:41.418Z,33.87
2017-05-18T06:44:41.460Z,34.1
2017-05-18T06:45:41.198Z,33.76
2017-05-18T06:46:41.539Z,33.76
2017-05-18T06:47:41.572Z,34.05
2017-05-18T06:48:41.614Z,34.16
2017-05-18T06:49:41.649Z,33.11
2017-05-18T06:50:41.694Z,32.96
2017-05-18T06:51:41.728Z,32.47
2017-05-18T06:52:56.388Z,32.38
2017-05-18T06:53:41.812Z,32.43
2017-05-18T06:54:41.845Z,32.87
2017-05-18T06:55:41.884Z,32.75
2017-05-18T06:56:41.925Z,33.11
2017-05-18T06:57:41.974Z,33.18
2017-05-18T06:58:42.004Z,32.75
2017-05-18T06:59:42.042Z,33.01
2017-05-18T07:00:42.080Z,32.85
2017-05-18T07:01:42.116Z,32.22
2017-05-18T07:02:42.157Z,31.99
2017-05-18T07:03:56.815Z,32.21
2017-05-18T07:04:42.234Z,32.51
2017-05-18T07:05:42.271Z,32.88
2017-05-18T07:06:42.310Z,33.31
2017-05-18T07:07:42.350Z,33.53
2017-05-18T07:08:57.007Z,34.05
2017-05-18T07:09:42.426Z,34.49
2017-05-18T07:10:42.465Z,34.32
2017-05-18T07:11:42.503Z,34.03
2017-05-18T07:12:42.543Z,33.9
2017-05-18T07:13:42.582Z,33.73
2017-05-18T07:14:42.618Z,34.31
2017-05-18T07:15:42.658Z,34.54
2017-05-18T07:17:57.360Z,34.82
2017-05-18T07:18:42.776Z,34.85
2017-05-18T07:19:57.434Z,34.97
2017-05-18T07:20:57.473Z,34.53
2017-05-18T07:21:42.893Z,34.21
2017-05-18T07:22:42.931Z,34.35
2017-05-18T07:23:57.589Z,34.64
2017-05-18T07:24:43.015Z,34.88
2017-05-18T07:25:43.046Z,34.91
2017-05-18T07:26:43.086Z,34.44
2017-05-18T07:28:43.169Z,34.21
2017-05-18T07:29:43.204Z,34.8
2017-05-18T07:30:43.243Z,34.82
2017-05-18T07:33:43.362Z,34.58
2017-05-18T07:34:58.021Z,33.57
2017-05-18T07:35:58.059Z,34.06
2017-05-18T07:36:43.482Z,34.27
2017-05-18T07:37:43.515Z,34.32
2017-05-18T07:38:43.558Z,34.84
2017-05-18T07:39:43.596Z,34.7
2017-05-18T07:40:43.632Z,34.52
2017-05-18T07:41:43.675Z,33.79
2017-05-18T07:42:43.713Z,33.81
2017-05-18T07:43:43.752Z,34.1
2017-05-18T07:44:43.788Z,34.27
2017-05-18T07:45:43.830Z,34.94
2017-05-18T07:47:43.907Z,35.03
2017-05-18T07:48:43.945Z,35.33
2017-05-18T07:49:43.982Z,35.25
2017-05-18T07:50:44.022Z,34.7
2017-05-18T07:51:58.681Z,34.47
2017-05-18T07:52:44.104Z,34.09
2017-05-18T07:53:44.142Z,34.3
2017-05-18T07:54:44.176Z,34.7
2017-05-18T07:55:58.840Z,34.92
2017-05-18T07:56:44.254Z,34.96
2017-05-18T07:57:44.294Z,34.37
2017-05-18T07:58:44.337Z,34.27
2017-05-18T07:59:44.369Z,33.86
2017-05-18T08:00:44.409Z,33.75
2017-05-18T08:03:44.526Z,34.31
2017-05-18T08:04:44.615Z,34.44
2017-05-18T08:05:44.601Z,34.31
2017-05-18T08:06:44.345Z,34.3
2017-05-18T08:07:44.374Z,34.56
2017-05-18T08:08:44.489Z,34.08
2017-05-18T08:09:59.375Z,34.05
2017-05-18T08:10:44.794Z,33.93
2017-05-18T08:11:59.453Z,34.13
2017-05-18T08:12:44.868Z,34.1
2017-05-18T08:13:44.915Z,34.7
2017-05-18T08:14:44.946Z,34.84
2017-05-18T08:15:44.984Z,34.73
2017-05-18T08:16:45.029Z,34.81
2017-05-18T08:17:45.069Z,34.88
2017-05-18T08:18:45.101Z,34.43
2017-05-18T08:19:44.833Z,34.03
2017-05-18T08:21:45.213Z,33.71
2017-05-18T08:22:45.250Z,34.24
2017-05-18T08:23:44.987Z,34.31
2017-05-18T08:24:45.327Z,34.64
2017-05-18T08:25:45.363Z,34.52
2017-05-18T08:26:45.404Z,33.72
2017-05-18T08:28:00.063Z,33.94
2017-05-18T08:28:45.479Z,33.86
2017-05-18T08:29:45.515Z,34.03
2017-05-18T08:30:45.553Z,34.06
2017-05-18T08:31:45.593Z,34.1
2017-05-18T08:32:45.629Z,34.06
2017-05-18T08:33:45.726Z,34.09
2017-05-18T08:34:45.706Z,34.42
2017-05-18T08:36:45.781Z,34.3
2017-05-18T08:38:00.438Z,34.43
2017-05-18T08:38:45.853Z,34.1
2017-05-18T08:40:00.511Z,34.28
2017-05-18T08:40:45.928Z,34.06
2017-05-18T08:41:45.968Z,34.08
2017-05-18T08:42:46.007Z,34.22
2017-05-18T08:44:00.663Z,34.21
2017-05-18T08:44:46.077Z,34.32
2017-05-18T08:45:46.118Z,34.59
2017-05-18T08:47:46.192Z,34.78
2017-05-18T08:48:46.226Z,35.09
2017-05-18T08:49:46.265Z,34.97
2017-05-18T08:50:46.300Z,35.21
2017-05-18T08:51:46.345Z,35.44
2017-05-18T08:52:46.379Z,35.58
2017-05-18T08:53:46.418Z,35.02
2017-05-18T08:54:46.449Z,34.92
2017-05-18T08:56:01.107Z,34.89
2017-05-18T08:56:46.526Z,35.16
2017-05-18T08:57:46.563Z,35.25
2017-05-18T08:59:01.220Z,35.11
2017-05-18T08:59:46.686Z,35.4
2017-05-18T09:00:46.675Z,35.52
2017-05-18T09:01:46.711Z,35.72
2017-05-18T09:02:46.749Z,35.6
2017-05-18T09:03:46.786Z,35.55
2017-05-18T09:04:46.821Z,35.5
2017-05-18T09:05:46.859Z,35.37
2017-05-18T09:06:46.900Z,35.25
2017-05-18T09:08:01.559Z,35.33
2017-05-18T09:09:01.592Z,35.45
2017-05-18T09:09:47.013Z,35.43
2017-05-18T09:10:47.046Z,35.31
2017-05-18T09:11:47.082Z,35.47
2017-05-18T09:12:47.120Z,35.68
2017-05-18T09:13:47.159Z,35.97
2017-05-18T09:14:47.209Z,35.94
2017-05-18T09:15:47.209Z,35.34
2017-05-18T09:16:47.248Z,35.11
2017-05-18T09:17:47.283Z,35.44
2017-05-18T09:18:47.322Z,35.74
2017-05-18T09:19:47.053Z,35.9
2017-05-18T09:20:47.096Z,35.93
2017-05-18T09:21:47.453Z,35.87
2017-05-18T09:22:47.510Z,35.7
2017-05-18T09:23:47.530Z,35.19
2017-05-18T09:25:47.669Z,34.56
2017-05-18T09:27:47.693Z,35.19
2017-05-18T09:28:47.718Z,34.87
2017-05-18T09:29:47.772Z,34.7
2017-05-18T09:31:02.408Z,34.62
2017-05-18T09:31:47.840Z,34.75
2017-05-18T09:32:47.876Z,34.47
2017-05-18T09:33:47.913Z,34.28
2017-05-18T09:35:02.555Z,34.17
2017-05-18T09:36:02.587Z,34.19
2017-05-18T09:36:48.020Z,34.13
2017-05-18T09:37:48.043Z,34.35
2017-05-18T09:38:48.084Z,34.22
2017-05-18T09:39:48.124Z,33.88
2017-05-18T09:40:48.155Z,33.86
2017-05-18T09:41:48.189Z,33.91
2017-05-18T09:42:48.247Z,33.56
2017-05-18T09:44:02.868Z,32.93
2017-05-18T09:44:48.311Z,33
2017-05-18T09:45:48.336Z,33.04
2017-05-18T09:47:02.989Z,32.84
2017-05-18T09:47:48.404Z,33.04
2017-05-18T09:48:48.448Z,33.59
2017-05-18T09:49:48.494Z,34.09
2017-05-18T09:51:48.558Z,34.73
2017-05-18T09:52:48.588Z,35.15
2017-05-18T09:53:48.646Z,35.03
2017-05-18T09:54:48.653Z,35.26
2017-05-18T09:55:48.694Z,35.09
2017-05-18T09:56:48.734Z,35.1
2017-05-18T09:58:03.373Z,35.1
2017-05-18T09:58:48.812Z,35.23
2017-05-18T09:59:48.820Z,35.29
2017-05-18T10:01:03.492Z,35.02
2017-05-18T10:03:03.551Z,35.58
2017-05-18T10:04:03.596Z,35.65
2017-05-18T10:05:03.626Z,35.66
2017-05-18T10:05:49.063Z,35.62
2017-05-18T10:06:49.085Z,35.93
2017-05-18T10:07:49.117Z,36.05
2017-05-18T10:08:49.155Z,36.27
2017-05-18T10:09:49.201Z,36.16
2017-05-18T10:10:49.260Z,36.28
2017-05-18T10:11:48.954Z,36.43
2017-05-18T10:12:49.295Z,36.05
2017-05-18T10:13:49.351Z,35.71
2017-05-18T10:15:03.973Z,35.74
2017-05-18T10:15:49.410Z,35.84
2017-05-18T10:16:49.450Z,35.63
2017-05-18T10:17:49.482Z,35.44
2017-05-18T10:19:04.124Z,35.48
2017-05-18T10:19:49.591Z,35.44
2017-05-18T10:20:49.593Z,35.33
2017-05-18T10:21:49.629Z,34.97
2017-05-18T10:22:49.676Z,34.44
2017-05-18T10:23:49.373Z,33.98
2017-05-18T10:24:49.419Z,33.59
2017-05-18T10:25:49.760Z,33.51
2017-05-18T10:26:49.503Z,33.42
2017-05-18T10:27:49.824Z,33.32
2017-05-18T10:28:49.884Z,32.84
2017-05-18T10:29:49.909Z,32.87
2017-05-18T10:30:49.960Z,32.67
2017-05-18T10:32:04.590Z,32.77
2017-05-18T10:32:50.035Z,32.69
2017-05-18T10:34:04.658Z,32.56
2017-05-18T10:34:50.080Z,32.57
2017-05-18T10:35:50.123Z,32.56
2017-05-18T10:36:50.161Z,32.41
2017-05-18T10:37:50.176Z,32.55
2017-05-18T10:38:49.914Z,32.48
2017-05-18T10:39:50.250Z,32.5
2017-05-18T10:40:50.304Z,32.35
2017-05-18T10:41:50.318Z,32.22
2017-05-18T10:42:50.364Z,31.99
2017-05-18T10:43:50.094Z,31.95
2017-05-18T10:44:50.189Z,32.07
2017-05-18T10:45:50.469Z,32.11
2017-05-18T10:46:50.553Z,32.23
2017-05-18T10:48:05.147Z,31.99
2017-05-18T10:49:50.623Z,32.08
2017-05-18T10:50:50.646Z,32.14
2017-05-18T10:52:05.286Z,32.04
2017-05-18T10:52:50.705Z,32.11
2017-05-18T10:53:50.737Z,31.8
2017-05-18T10:54:50.781Z,31.68
2017-05-18T10:55:50.509Z,31.76
2017-05-18T10:56:50.546Z,31.68
2017-05-18T10:57:50.883Z,31.81
2017-05-18T10:58:50.921Z,31.63
2017-05-18T10:59:50.946Z,31.68
2017-05-18T11:00:50.983Z,31.5
2017-05-18T11:01:50.716Z,31.47
2017-05-18T11:02:51.084Z,31.16
2017-05-18T11:03:51.080Z,30.89
2017-05-18T11:04:51.137Z,31.21
2017-05-18T11:06:05.763Z,30.99
2017-05-18T11:07:05.800Z,30.89
2017-05-18T11:07:51.226Z,31.29
2017-05-18T11:09:05.867Z,31.38
2017-05-18T11:10:05.900Z,31.32
2017-05-18T11:11:05.928Z,31.25
2017-05-18T11:11:51.341Z,31.23
2017-05-18T11:12:51.075Z,31.09
2017-05-18T11:13:51.440Z,30.7
2017-05-18T11:15:51.478Z,31.07
2017-05-18T11:16:51.525Z,30.91
2017-05-18T11:18:06.155Z,30.69
2017-05-18T11:18:51.594Z,30.83
2017-05-18T11:19:51.616Z,31.06
2017-05-18T11:20:51.675Z,30.94
2017-05-18T11:22:06.306Z,30.94
2017-05-18T11:22:51.716Z,30.94
2017-05-18T11:23:51.764Z,30.94
2017-05-18T11:24:51.784Z,30.8
2017-05-18T11:26:06.432Z,30.61
2017-05-18T11:26:51.835Z,30.83
2017-05-18T11:27:51.896Z,30.77
2017-05-18T11:28:51.925Z,30.98
2017-05-18T11:29:51.657Z,30.84
2017-05-18T11:30:51.985Z,30.98
2017-05-18T11:31:52.029Z,31.25
2017-05-18T11:32:52.057Z,31.43
2017-05-18T11:33:52.080Z,31.51
2017-05-18T11:34:52.118Z,31.58
2017-05-18T11:35:51.852Z,31.72
2017-05-18T11:36:52.174Z,31.86
2017-05-18T11:38:06.831Z,31.76
2017-05-18T11:38:52.260Z,31.57
2017-05-18T11:40:06.899Z,31.23
2017-05-18T11:41:06.929Z,31.13
2017-05-18T11:42:06.960Z,31.19
2017-05-18T11:42:52.392Z,31.46
2017-05-18T11:43:52.408Z,31.46
2017-05-18T11:44:52.460Z,31.48
2017-05-18T11:45:52.484Z,31.48
2017-05-18T11:46:52.208Z,31.5
2017-05-18T11:47:52.541Z,31.29
2017-05-18T11:48:52.572Z,31.07
2017-05-18T11:49:52.615Z,31.14
2017-05-18T11:50:52.338Z,31.28
2017-05-18T11:51:52.681Z,31.5
2017-05-18T11:52:52.702Z,31.16
2017-05-18T11:54:07.363Z,31.04
2017-05-18T11:55:07.391Z,31.21
2017-05-18T11:55:52.802Z,31.21
2017-05-18T11:56:52.849Z,31.26
2017-05-18T11:57:52.566Z,31.23
2017-05-18T11:58:52.899Z,31.39
2017-05-18T11:59:52.637Z,31.41
2017-05-18T12:00:52.970Z,31.46
2017-05-18T12:01:53.019Z,31.35
2017-05-18T12:02:53.031Z,31.46
2017-05-18T12:03:53.080Z,31.43
2017-05-18T12:04:53.089Z,31.38
2017-05-18T12:06:07.739Z,31.53
2017-05-18T12:06:53.168Z,31.31
2017-05-18T12:07:53.216Z,31.35
2017-05-18T12:09:07.848Z,31.48
2017-05-18T12:09:53.275Z,31.41
2017-05-18T12:10:53.006Z,31.41
2017-05-18T12:11:53.313Z,31.61
2017-05-18T12:12:53.358Z,31.48
2017-05-18T12:15:53.473Z,31.34
2017-05-18T12:17:53.526Z,31.35
2017-05-18T12:18:53.565Z,31.44
2017-05-18T12:19:53.597Z,31.5
2017-05-18T12:20:53.638Z,31.5
2017-05-18T12:21:53.640Z,31.57
2017-05-18T12:22:53.701Z,31.51
2017-05-18T12:23:53.724Z,31.48
2017-05-18T12:24:53.765Z,31.36
2017-05-18T12:25:53.775Z,31.35
2017-05-18T12:28:53.906Z,31.12
2017-05-18T12:29:53.918Z,31.04
2017-05-18T12:30:53.946Z,31.07
2017-05-18T12:31:53.980Z,31.23
2017-05-18T12:32:54.033Z,31.28
2017-05-18T12:33:54.065Z,31.38
2017-05-18T12:35:08.689Z,31.26
2017-05-18T12:35:54.120Z,31.26
2017-05-18T12:36:54.152Z,31.06
2017-05-18T12:37:54.194Z,31.1
2017-05-18T12:38:54.213Z,31.26
2017-05-18T12:39:54.255Z,31.16
2017-05-18T12:41:08.890Z,31.28
2017-05-18T12:41:54.307Z,31.35
2017-05-18T12:42:54.345Z,31.34
2017-05-18T12:43:54.368Z,31.28
2017-05-18T12:44:54.107Z,31.07
2017-05-18T12:45:54.434Z,31.17
2017-05-18T12:46:54.484Z,31.02
2017-05-18T12:47:54.502Z,31.04
2017-05-18T12:48:54.551Z,31.09
2017-05-18T12:49:54.566Z,31.07
2017-05-18T12:50:54.304Z,31.19
2017-05-18T12:51:54.625Z,31.07
2017-05-18T12:52:54.688Z,31.02
2017-05-18T12:54:54.734Z,31.02
2017-05-18T12:55:54.767Z,31.21
2017-05-18T12:57:09.413Z,31.5
2017-05-18T12:57:54.830Z,31.48
2017-05-18T12:58:54.865Z,31.53
2017-05-18T13:00:09.506Z,31.48
2017-05-18T13:00:54.921Z,31.36
2017-05-18T13:01:54.952Z,31.44
2017-05-18T13:02:55.002Z,31.32
2017-05-18T13:03:55.037Z,31.31
2017-05-18T13:04:55.062Z,30.98
2017-05-18T13:05:55.097Z,30.86
2017-05-18T13:06:54.804Z,30.72
2017-05-18T13:07:55.161Z,30.89
2017-05-18T13:08:55.191Z,31.01
2017-05-18T13:09:55.225Z,31.17
2017-05-18T13:10:55.256Z,31.34
2017-05-18T13:11:55.284Z,31.2
2017-05-18T13:13:09.623Z,31.29
2017-05-18T13:13:55.337Z,31.29
2017-05-18T13:15:09.991Z,31.38
2017-05-18T13:15:55.394Z,31.31
2017-05-18T13:16:55.452Z,31.29
2017-05-18T13:17:55.483Z,31.07
2017-05-18T13:18:55.505Z,31.26
2017-05-18T13:19:54.927Z,31.09
2017-05-18T13:20:55.584Z,30.82
2017-05-18T13:21:55.607Z,30.91
2017-05-18T13:22:55.643Z,30.95
2017-05-18T13:23:55.664Z,30.91
2017-05-18T13:24:55.708Z,30.7
2017-05-18T13:25:55.717Z,30.77
2017-05-18T13:26:55.769Z,30.84
2017-05-18T13:27:55.805Z,30.91
2017-05-18T13:29:10.434Z,31.01
2017-05-18T13:29:55.853Z,31.09
2017-05-18T13:31:10.507Z,31.17
2017-05-18T13:31:55.934Z,31.26
2017-05-18T13:32:55.959Z,31.07
2017-05-18T13:33:56.002Z,31.19
2017-05-18T13:34:56.014Z,31.2
2017-05-18T13:35:56.069Z,31.26
2017-05-18T13:37:56.116Z,31.16
2017-05-18T13:38:56.159Z,31.04
2017-05-18T13:40:10.784Z,30.98
2017-05-18T13:40:55.919Z,30.95